sensor_id;sensor_type;location;lat;lon;timestamp;pressure;altitude;pressure_sealevel;temperature;humidity
59987;BME280;46181;51.498;5.392;2023-05-22T00:03:51;101392.9;;;21.08;56.38867
59987;BME280;46181;51.498;5.392;2023-05-22T00:08:21;101386.7;;;21.02;56.55566
59987;BME280;46181;51.498;5.392;2023-05-22T00:12:51;101382.5;;;20.96;56.55859
59987;BME280;46181;51.498;5.392;2023-05-22T00:17:21;101384.4;;;20.91;56.7832
59987;BME280;46181;51.498;5.392;2023-05-22T00:21:51;101386.6;;;20.86;56.88184
59987;BME280;46181;51.498;5.392;2023-05-22T00:26:22;101386.6;;;20.84;56.88965
59987;BME280;46181;51.498;5.392;2023-05-22T00:30:51;101387.2;;;20.81;56.99023
59987;BME280;46181;51.498;5.392;2023-05-22T00:35:22;101378.5;;;20.75;57.10742
59987;BME280;46181;51.498;5.392;2023-05-22T00:39:51;101377.5;;;20.68;57.2041
59987;BME280;46181;51.498;5.392;2023-05-22T00:44:21;101370.3;;;20.62;57.3457
59987;BME280;46181;51.498;5.392;2023-05-22T00:48:51;101371.2;;;20.56;57.38379
59987;BME280;46181;51.498;5.392;2023-05-22T00:53:23;101378.6;;;20.51;57.56152
59987;BME280;46181;51.498;5.392;2023-05-22T00:57:51;101378.2;;;20.49;57.59277
59987;BME280;46181;51.498;5.392;2023-05-22T01:02:22;101372.9;;;20.42;57.70117
59987;BME280;46181;51.498;5.392;2023-05-22T01:06:51;101379.4;;;20.38;57.70605
59987;BME280;46181;51.498;5.392;2023-05-22T01:11:24;101371.2;;;20.32;57.90625
59987;BME280;46181;51.498;5.392;2023-05-22T01:15:56;101367.5;;;20.3;57.9834
59987;BME280;46181;51.498;5.392;2023-05-22T01:20:27;101370;;;20.26;58.03613
59987;BME280;46181;51.498;5.392;2023-05-22T01:25:10;101365.1;;;20.15;58.19531
59987;BME280;46181;51.498;5.392;2023-05-22T01:29:38;101373.6;;;20.08;58.3457
59987;BME280;46181;51.498;5.392;2023-05-22T01:33:54;101365;;;20.11;58.30469
59987;BME280;46181;51.498;5.392;2023-05-22T01:38:22;101362.8;;;20.08;58.30078
59987;BME280;46181;51.498;5.392;2023-05-22T01:42:51;101372.1;;;20.01;58.38379
59987;BME280;46181;51.498;5.392;2023-05-22T01:47:21;101367;;;19.96;58.38867
59987;BME280;46181;51.498;5.392;2023-05-22T01:51:56;101359.5;;;19.82;58.64551
59987;BME280;46181;51.498;5.392;2023-05-22T01:56:24;101362.3;;;19.82;58.79395
59987;BME280;46181;51.498;5.392;2023-05-22T02:00:53;101359.3;;;19.77;58.75391
59987;BME280;46181;51.498;5.392;2023-05-22T02:05:24;101358.2;;;19.73;58.87402
59987;BME280;46181;51.498;5.392;2023-05-22T02:09:54;101353.7;;;19.67;58.9248
59987;BME280;46181;51.498;5.392;2023-05-22T02:14:21;101354.3;;;19.64;59.0127
59987;BME280;46181;51.498;5.392;2023-05-22T02:18:51;101350.7;;;19.57;58.98047
59987;BME280;46181;51.498;5.392;2023-05-22T02:23:21;101354;;;19.54;59.09082
59987;BME280;46181;51.498;5.392;2023-05-22T02:27:53;101350.1;;;19.51;59.25879
59987;BME280;46181;51.498;5.392;2023-05-22T02:32:21;101348.6;;;19.5;59.24805
59987;BME280;46181;51.498;5.392;2023-05-22T02:36:52;101345.5;;;19.5;59.30469
59987;BME280;46181;51.498;5.392;2023-05-22T02:41:21;101344;;;19.5;59.3623
59987;BME280;46181;51.498;5.392;2023-05-22T02:45:51;101340.7;;;19.5;59.4082
59987;BME280;46181;51.498;5.392;2023-05-22T02:50:21;101339;;;19.52;59.44531
59987;BME280;46181;51.498;5.392;2023-05-22T02:54:51;101334.9;;;19.57;59.39551
59987;BME280;46181;51.498;5.392;2023-05-22T02:59:21;101338.3;;;19.65;59.29004
59987;BME280;46181;51.498;5.392;2023-05-22T03:03:51;101332.6;;;19.63;59.29883
59987;BME280;46181;51.498;5.392;2023-05-22T03:08:21;101337.7;;;19.65;59.25488
59987;BME280;46181;51.498;5.392;2023-05-22T03:12:51;101336.6;;;19.6;59.18066
59987;BME280;46181;51.498;5.392;2023-05-22T03:17:21;101329.1;;;19.52;59.17969
59987;BME280;46181;51.498;5.392;2023-05-22T03:21:51;101328.9;;;19.43;59.22559
59987;BME280;46181;51.498;5.392;2023-05-22T03:26:21;101328.9;;;19.33;59.28223
59987;BME280;46181;51.498;5.392;2023-05-22T03:30:51;101321.4;;;19.23;59.46289
59987;BME280;46181;51.498;5.392;2023-05-22T03:35:21;101322;;;19.14;59.60156
59987;BME280;46181;51.498;5.392;2023-05-22T03:39:51;101321.1;;;19.07;59.67188
59987;BME280;46181;51.498;5.392;2023-05-22T03:44:21;101321.8;;;19;59.82227
59987;BME280;46181;51.498;5.392;2023-05-22T03:48:51;101327;;;18.96;59.93164
59987;BME280;46181;51.498;5.392;2023-05-22T03:53:21;101323.3;;;18.92;60.00684
59987;BME280;46181;51.498;5.392;2023-05-22T03:57:51;101322.3;;;18.91;60.06152
59987;BME280;46181;51.498;5.392;2023-05-22T04:02:21;101316.9;;;18.87;59.9541
59987;BME280;46181;51.498;5.392;2023-05-22T04:06:52;101317.8;;;18.81;60.1875
59987;BME280;46181;51.498;5.392;2023-05-22T04:11:21;101318.1;;;18.8;60.21973
59987;BME280;46181;51.498;5.392;2023-05-22T04:15:51;101316.5;;;18.78;60.27539
59987;BME280;46181;51.498;5.392;2023-05-22T04:20:22;101321.5;;;18.77;60.25
59987;BME280;46181;51.498;5.392;2023-05-22T04:24:51;101320.8;;;18.8;60.28906
59987;BME280;46181;51.498;5.392;2023-05-22T04:29:22;101325.7;;;18.82;60.22168
59987;BME280;46181;51.498;5.392;2023-05-22T04:33:51;101334.8;;;18.88;60.28906
59987;BME280;46181;51.498;5.392;2023-05-22T04:38:21;101343.2;;;18.96;60.31152
59987;BME280;46181;51.498;5.392;2023-05-22T04:42:51;101343.3;;;19.12;60.19434
59987;BME280;46181;51.498;5.392;2023-05-22T04:47:21;101352.9;;;19.31;60.04785
59987;BME280;46181;51.498;5.392;2023-05-22T04:51:52;101351.9;;;19.48;59.93359
59987;BME280;46181;51.498;5.392;2023-05-22T04:56:21;101357.5;;;19.67;59.69434
59987;BME280;46181;51.498;5.392;2023-05-22T05:00:52;101357.9;;;19.8;59.38965
59987;BME280;46181;51.498;5.392;2023-05-22T05:05:21;101365.9;;;19.87;59.11328
59987;BME280;46181;51.498;5.392;2023-05-22T05:09:52;101366.8;;;19.98;58.97656
59987;BME280;46181;51.498;5.392;2023-05-22T05:14:22;101370;;;20;58.80762
59987;BME280;46181;51.498;5.392;2023-05-22T05:18:52;101370.7;;;20.07;58.72559
59987;BME280;46181;51.498;5.392;2023-05-22T05:23:21;101375.8;;;20.12;58.39844
59987;BME280;46181;51.498;5.392;2023-05-22T05:27:51;101381.3;;;20.2;58.48828
59987;BME280;46181;51.498;5.392;2023-05-22T05:32:22;101373.4;;;20.3;58.39844
59987;BME280;46181;51.498;5.392;2023-05-22T05:36:51;101376.5;;;20.42;58.37891
59987;BME280;46181;51.498;5.392;2023-05-22T05:41:21;101372.5;;;20.52;58.03613
59987;BME280;46181;51.498;5.392;2023-05-22T05:45:51;101373.1;;;20.65;57.81055
59987;BME280;46181;51.498;5.392;2023-05-22T05:50:22;101374.5;;;20.8;57.4502
59987;BME280;46181;51.498;5.392;2023-05-22T05:54:51;101371.7;;;20.95;57.23926
59987;BME280;46181;51.498;5.392;2023-05-22T05:59:21;101375.8;;;21.1;57.01563
59987;BME280;46181;51.498;5.392;2023-05-22T06:03:52;101382.1;;;21.24;56.30566
59987;BME280;46181;51.498;5.392;2023-05-22T06:08:21;101386;;;21.35;56.10059
59987;BME280;46181;51.498;5.392;2023-05-22T06:12:51;101392.1;;;21.45;55.65234
59987;BME280;46181;51.498;5.392;2023-05-22T06:17:21;101388.5;;;21.6;55.53125
59987;BME280;46181;51.498;5.392;2023-05-22T06:21:51;101398;;;21.76;55.16992
59987;BME280;46181;51.498;5.392;2023-05-22T06:26:22;101397.3;;;21.87;54.7666
59987;BME280;46181;51.498;5.392;2023-05-22T06:30:52;101400.9;;;22.07;54.53613
59987;BME280;46181;51.498;5.392;2023-05-22T06:35:22;101403.1;;;22.15;53.8877
59987;BME280;46181;51.498;5.392;2023-05-22T06:39:51;101401.3;;;22.28;53.47461
59987;BME280;46181;51.498;5.392;2023-05-22T06:44:21;101404.4;;;22.42;53.23633
59987;BME280;46181;51.498;5.392;2023-05-22T06:48:51;101406.5;;;22.6;52.66699
59987;BME280;46181;51.498;5.392;2023-05-22T06:53:22;101410;;;22.67;52.33887
59987;BME280;46181;51.498;5.392;2023-05-22T06:57:52;101408.1;;;22.8;52.03027
59987;BME280;46181;51.498;5.392;2023-05-22T07:02:22;101416.5;;;22.92;51.5791
59987;BME280;46181;51.498;5.392;2023-05-22T07:06:52;101428.7;;;22.98;51.51758
59987;BME280;46181;51.498;5.392;2023-05-22T07:11:21;101433.6;;;23.03;51.15234
59987;BME280;46181;51.498;5.392;2023-05-22T07:15:52;101443.9;;;22.99;51.08887
59987;BME280;46181;51.498;5.392;2023-05-22T07:20:22;101440.4;;;22.99;51.44824
59987;BME280;46181;51.498;5.392;2023-05-22T07:24:52;101437.2;;;23.1;51.42578
59987;BME280;46181;51.498;5.392;2023-05-22T07:29:22;101440.2;;;23.26;51.12012
59987;BME280;46181;51.498;5.392;2023-05-22T07:33:52;101442.1;;;23.38;50.84277
59987;BME280;46181;51.498;5.392;2023-05-22T07:38:22;101441.4;;;23.6;50.51855
59987;BME280;46181;51.498;5.392;2023-05-22T07:42:51;101443.9;;;23.77;50.22363
59987;BME280;46181;51.498;5.392;2023-05-22T07:47:22;101448.9;;;23.96;49.93164
59987;BME280;46181;51.498;5.392;2023-05-22T07:51:52;101451.8;;;24.06;49.68652
59987;BME280;46181;51.498;5.392;2023-05-22T07:56:22;101457.9;;;24.2;49.59766
59987;BME280;46181;51.498;5.392;2023-05-22T08:00:52;101453.7;;;24.33;49.2627
59987;BME280;46181;51.498;5.392;2023-05-22T08:05:22;101455.3;;;24.54;49.2041
59987;BME280;46181;51.498;5.392;2023-05-22T08:09:52;101459.9;;;24.79;48.78711
59987;BME280;46181;51.498;5.392;2023-05-22T08:14:22;101456.9;;;25.03;48.33594
59987;BME280;46181;51.498;5.392;2023-05-22T08:18:52;101449.8;;;25.35;47.91504
59987;BME280;46181;51.498;5.392;2023-05-22T08:23:22;101446.5;;;25.63;47.33691
59987;BME280;46181;51.498;5.392;2023-05-22T08:27:52;101449.5;;;25.76;46.83691
59987;BME280;46181;51.498;5.392;2023-05-22T08:32:22;101450.2;;;25.92;46.53809
59987;BME280;46181;51.498;5.392;2023-05-22T08:36:52;101456.6;;;26.13;46.28906
59987;BME280;46181;51.498;5.392;2023-05-22T08:41:22;101448.9;;;26.35;45.93652
59987;BME280;46181;51.498;5.392;2023-05-22T08:45:54;101452.1;;;26.74;45.39063
59987;BME280;46181;51.498;5.392;2023-05-22T08:50:23;101451.7;;;27;44.50195
59987;BME280;46181;51.498;5.392;2023-05-22T08:54:54;101448.9;;;27.24;44.17285
59987;BME280;46181;51.498;5.392;2023-05-22T08:59:22;101449.2;;;27.47;43.67871
59987;BME280;46181;51.498;5.392;2023-05-22T09:03:53;101450.5;;;27.51;43.15527
59987;BME280;46181;51.498;5.392;2023-05-22T09:08:22;101452.6;;;27.27;43.28418
59987;BME280;46181;51.498;5.392;2023-05-22T09:13:03;101448.4;;;27.28;43.47461
59987;BME280;46181;51.498;5.392;2023-05-22T09:17:22;101446.3;;;27.56;42.88867
59987;BME280;46181;51.498;5.392;2023-05-22T09:21:52;101455.2;;;27.55;42.71191
59987;BME280;46181;51.498;5.392;2023-05-22T09:26:25;101453.5;;;27.7;42.71387
59987;BME280;46181;51.498;5.392;2023-05-22T09:30:55;101451.4;;;27.83;42.69238
59987;BME280;46181;51.498;5.392;2023-05-22T09:35:22;101440.1;;;28.11;41.98828
59987;BME280;46181;51.498;5.392;2023-05-22T09:39:52;101447.5;;;28.35;41.71582
59987;BME280;46181;51.498;5.392;2023-05-22T09:44:24;101442.9;;;28.51;40.90625
59987;BME280;46181;51.498;5.392;2023-05-22T09:48:53;101440.1;;;28.79;40.98926
59987;BME280;46181;51.498;5.392;2023-05-22T09:53:26;101436.9;;;29.1;40.0625
59987;BME280;46181;51.498;5.392;2023-05-22T10:02:23;101431.6;;;29.78;39.15332
59987;BME280;46181;51.498;5.392;2023-05-22T10:06:55;101435.8;;;30.11;38.81445
59987;BME280;46181;51.498;5.392;2023-05-22T10:11:23;101435.4;;;30.22;38.31543
59987;BME280;46181;51.498;5.392;2023-05-22T10:15:52;101429.1;;;29.95;38.60059
59987;BME280;46181;51.498;5.392;2023-05-22T10:20:23;101426.5;;;29.84;39.06445
59987;BME280;46181;51.498;5.392;2023-05-22T10:24:53;101427.5;;;29.69;39.09863
59987;BME280;46181;51.498;5.392;2023-05-22T10:29:27;101422.4;;;29.49;39.53027
59987;BME280;46181;51.498;5.392;2023-05-22T10:33:55;101421.5;;;29.56;39.58398
59987;BME280;46181;51.498;5.392;2023-05-22T10:38:43;101418.6;;;29.49;39.80176
59987;BME280;46181;51.498;5.392;2023-05-22T10:42:52;101407.9;;;29.71;39.33691
59987;BME280;46181;51.498;5.392;2023-05-22T10:47:22;101403.6;;;29.76;39.37695
59987;BME280;46181;51.498;5.392;2023-05-22T10:51:52;101407.9;;;29.8;39.15527
59987;BME280;46181;51.498;5.392;2023-05-22T10:56:23;101408.1;;;29.69;39.00391
59987;BME280;46181;51.498;5.392;2023-05-22T11:00:53;101405.5;;;29.6;39.33789
59987;BME280;46181;51.498;5.392;2023-05-22T11:05:37;101407.7;;;29.91;39.41309
59987;BME280;46181;51.498;5.392;2023-05-22T11:09:52;101405.5;;;30.27;39.00684
59987;BME280;46181;51.498;5.392;2023-05-22T11:14:24;101405.2;;;30.64;38.2207
59987;BME280;46181;51.498;5.392;2023-05-22T11:18:58;101398.9;;;31.27;37.5498
59987;BME280;46181;51.498;5.392;2023-05-22T11:23:23;101400.3;;;31.38;36.65723
59987;BME280;46181;51.498;5.392;2023-05-22T11:27:52;101397.4;;;31.23;37.00098
59987;BME280;46181;51.498;5.392;2023-05-22T11:32:22;101398.6;;;31.48;36.66406
59987;BME280;46181;51.498;5.392;2023-05-22T11:36:52;101400.7;;;31.63;36.26172
59987;BME280;46181;51.498;5.392;2023-05-22T11:41:23;101388.1;;;31.76;36.2832
59987;BME280;46181;51.498;5.392;2023-05-22T11:45:52;101392.6;;;32.06;35.61719
59987;BME280;46181;51.498;5.392;2023-05-22T11:50:22;101389;;;32.01;35.35156
59987;BME280;46181;51.498;5.392;2023-05-22T11:54:52;101386;;;32;35.5293
59987;BME280;46181;51.498;5.392;2023-05-22T11:59:23;101378.3;;;32.04;35.69824
59987;BME280;46181;51.498;5.392;2023-05-22T12:03:52;101374.8;;;32.48;35.17285
59987;BME280;46181;51.498;5.392;2023-05-22T12:08:22;101380.5;;;32.57;34.40625
59987;BME280;46181;51.498;5.392;2023-05-22T12:12:52;101377.5;;;32.48;34.74414
59987;BME280;46181;51.498;5.392;2023-05-22T12:17:24;101367.8;;;32.78;34.42188
59987;BME280;46181;51.498;5.392;2023-05-22T12:21:52;101367.8;;;33.38;33.82227
59987;BME280;46181;51.498;5.392;2023-05-22T12:26:22;101365;;;33.74;33.20508
59987;BME280;46181;51.498;5.392;2023-05-22T12:30:54;101377.1;;;33.86;32.66309
59987;BME280;46181;51.498;5.392;2023-05-22T12:35:27;101373.2;;;33.85;32.73438
59987;BME280;46181;51.498;5.392;2023-05-22T12:40:02;101373.2;;;33.58;32.83398
59987;BME280;46181;51.498;5.392;2023-05-22T12:44:23;101372.4;;;33.49;33.15039
59987;BME280;46181;51.498;5.392;2023-05-22T12:48:53;101375.8;;;33.55;33.14258
59987;BME280;46181;51.498;5.392;2023-05-22T12:53:22;101368.7;;;33.73;32.65332
59987;BME280;46181;51.498;5.392;2023-05-22T12:57:52;101366.4;;;33.83;32.30176
59987;BME280;46181;51.498;5.392;2023-05-22T13:02:22;101360.8;;;33.88;32.4375
59987;BME280;46181;51.498;5.392;2023-05-22T13:06:52;101360;;;34.21;31.875
59987;BME280;46181;51.498;5.392;2023-05-22T13:11:22;101357.2;;;34.3;31.46289
59987;BME280;46181;51.498;5.392;2023-05-22T13:15:52;101356.1;;;33.87;31.81543
59987;BME280;46181;51.498;5.392;2023-05-22T13:20:22;101351.5;;;33.61;32.41797
59987;BME280;46181;51.498;5.392;2023-05-22T13:24:52;101352.3;;;33.97;32.09766
59987;BME280;46181;51.498;5.392;2023-05-22T13:29:22;101352.5;;;34.19;31.32227
59987;BME280;46181;51.498;5.392;2023-05-22T13:33:52;101357.4;;;34.14;31.47559
59987;BME280;46181;51.498;5.392;2023-05-22T13:38:22;101357.6;;;34.2;31.13184
59987;BME280;46181;51.498;5.392;2023-05-22T13:42:53;101357.9;;;33.81;31.62012
59987;BME280;46181;51.498;5.392;2023-05-22T13:47:22;101362.1;;;33.46;32.22949
59987;BME280;46181;51.498;5.392;2023-05-22T13:51:52;101363.1;;;33.31;32.1709
59987;BME280;46181;51.498;5.392;2023-05-22T13:56:22;101369.3;;;33.02;32.40039
59987;BME280;46181;51.498;5.392;2023-05-22T14:00:52;101362.6;;;32.94;32.57324
59987;BME280;46181;51.498;5.392;2023-05-22T14:05:22;101368;;;32.91;32.83496
59987;BME280;46181;51.498;5.392;2023-05-22T14:09:52;101375.1;;;33.07;32.49902
59987;BME280;46181;51.498;5.392;2023-05-22T14:14:22;101373;;;32.98;32.5293
59987;BME280;46181;51.498;5.392;2023-05-22T14:18:52;101370.2;;;32.86;32.96191
59987;BME280;46181;51.498;5.392;2023-05-22T14:23:22;101371.5;;;33.16;32.3623
59987;BME280;46181;51.498;5.392;2023-05-22T14:27:52;101373.9;;;33.1;32.38184
59987;BME280;46181;51.498;5.392;2023-05-22T14:32:22;101377;;;32.91;32.29785
59987;BME280;46181;51.498;5.392;2023-05-22T14:36:52;101372.7;;;32.51;32.7334
59987;BME280;46181;51.498;5.392;2023-05-22T14:41:22;101372.5;;;32.15;33.4707
59987;BME280;46181;51.498;5.392;2023-05-22T14:45:52;101377.2;;;32.06;34.04688
59987;BME280;46181;51.498;5.392;2023-05-22T14:50:23;101366.2;;;32.37;33.78418
59987;BME280;46181;51.498;5.392;2023-05-22T14:54:52;101375.4;;;32.75;33.50195
59987;BME280;46181;51.498;5.392;2023-05-22T14:59:22;101374.1;;;32.84;32.94824
59987;BME280;46181;51.498;5.392;2023-05-22T15:03:52;101379.3;;;32.68;33.26953
59987;BME280;46181;51.498;5.392;2023-05-22T15:08:22;101384.8;;;32.33;33.68555
59987;BME280;46181;51.498;5.392;2023-05-22T15:12:52;101389.3;;;31.99;34.43359
59987;BME280;46181;51.498;5.392;2023-05-22T15:17:22;101404.2;;;31.7;34.86426
59987;BME280;46181;51.498;5.392;2023-05-22T15:21:52;101397.9;;;31.65;34.88379
59987;BME280;46181;51.498;5.392;2023-05-22T15:26:22;101396.4;;;31.61;34.70215
59987;BME280;46181;51.498;5.392;2023-05-22T15:30:52;101389.7;;;31.34;35.02637
59987;BME280;46181;51.498;5.392;2023-05-22T15:35:22;101396.3;;;31.23;35.16016
59987;BME280;46181;51.498;5.392;2023-05-22T15:39:52;101399.6;;;31.07;35.24316
59987;BME280;46181;51.498;5.392;2023-05-22T15:44:22;101396.8;;;30.79;35.75586
59987;BME280;46181;51.498;5.392;2023-05-22T15:48:52;101396;;;30.69;35.85449
59987;BME280;46181;51.498;5.392;2023-05-22T15:53:22;101399.7;;;30.66;36.10059
59987;BME280;46181;51.498;5.392;2023-05-22T15:57:52;101401.6;;;31.55;34.95898
59987;BME280;46181;51.498;5.392;2023-05-22T16:02:22;101392.5;;;32.11;34.56152
59987;BME280;46181;51.498;5.392;2023-05-22T16:06:52;101390.6;;;33.65;31.99121
59987;BME280;46181;51.498;5.392;2023-05-22T16:11:22;101386.6;;;34.21;30.63086
59987;BME280;46181;51.498;5.392;2023-05-22T16:15:52;101392.7;;;33.3;31.89453
59987;BME280;46181;51.498;5.392;2023-05-22T16:20:22;101392.7;;;32.57;32.88184
59987;BME280;46181;51.498;5.392;2023-05-22T16:24:52;101393.5;;;31.87;34.14063
59987;BME280;46181;51.498;5.392;2023-05-22T16:29:22;101404.7;;;31.33;35.07324
59987;BME280;46181;51.498;5.392;2023-05-22T16:33:52;101412.5;;;30.75;36.16699
59987;BME280;46181;51.498;5.392;2023-05-22T16:38:22;101412.4;;;30.32;36.98535
59987;BME280;46181;51.498;5.392;2023-05-22T16:42:52;101409.9;;;29.91;37.91016
59987;BME280;46181;51.498;5.392;2023-05-22T16:47:22;101408.8;;;29.56;38.46094
59987;BME280;46181;51.498;5.392;2023-05-22T16:51:52;101411.1;;;29.44;38.94727
59987;BME280;46181;51.498;5.392;2023-05-22T16:56:22;101414.3;;;29.37;39.16504
59987;BME280;46181;51.498;5.392;2023-05-22T17:00:52;101412.8;;;29.43;39.04102
59987;BME280;46181;51.498;5.392;2023-05-22T17:05:22;101407.4;;;29.45;39.11426
59987;BME280;46181;51.498;5.392;2023-05-22T17:09:52;101410.7;;;29.45;39.21973
59987;BME280;46181;51.498;5.392;2023-05-22T17:14:22;101414.2;;;29.43;39.13574
59987;BME280;46181;51.498;5.392;2023-05-22T17:18:52;101415.7;;;29.42;39.28711
59987;BME280;46181;51.498;5.392;2023-05-22T17:23:22;101417.1;;;29.4;39.23926
59987;BME280;46181;51.498;5.392;2023-05-22T17:27:52;101421.4;;;29.11;39.61426
59987;BME280;46181;51.498;5.392;2023-05-22T17:32:22;101423.4;;;28.87;39.87695
59987;BME280;46181;51.498;5.392;2023-05-22T17:36:52;101435.2;;;28.78;40.19922
59987;BME280;46181;51.498;5.392;2023-05-22T17:41:22;101434.5;;;28.63;40.49219
59987;BME280;46181;51.498;5.392;2023-05-22T17:45:52;101443.8;;;28.44;40.72266
59987;BME280;46181;51.498;5.392;2023-05-22T17:50:23;101449.5;;;28.18;39.91016
59987;BME280;46181;51.498;5.392;2023-05-22T17:54:52;101455.3;;;27.94;39.40625
59987;BME280;46181;51.498;5.392;2023-05-22T17:59:22;101458.5;;;27.55;39.86719
59987;BME280;46181;51.498;5.392;2023-05-22T18:03:52;101461.7;;;27.36;40.03809
59987;BME280;46181;51.498;5.392;2023-05-22T18:08:22;101458.6;;;27.21;40.24805
59987;BME280;46181;51.498;5.392;2023-05-22T18:12:52;101466.1;;;27.11;40.3916
59987;BME280;46181;51.498;5.392;2023-05-22T18:17:22;101469.4;;;27.02;40.49023
59987;BME280;46181;51.498;5.392;2023-05-22T18:21:52;101479.3;;;26.89;40.59473
59987;BME280;46181;51.498;5.392;2023-05-22T18:26:22;101484.6;;;26.74;41.02832
59987;BME280;46181;51.498;5.392;2023-05-22T18:30:52;101488;;;26.71;41.14258
59987;BME280;46181;51.498;5.392;2023-05-22T18:35:22;101489.3;;;26.64;41.33594
59987;BME280;46181;51.498;5.392;2023-05-22T18:39:52;101490.7;;;26.53;41.44434
59987;BME280;46181;51.498;5.392;2023-05-22T18:44:22;101494.9;;;26.38;41.65234
59987;BME280;46181;51.498;5.392;2023-05-22T18:48:52;101492.5;;;26.17;42.07813
59987;BME280;46181;51.498;5.392;2023-05-22T18:53:22;101489.7;;;26.03;42.32324
59987;BME280;46181;51.498;5.392;2023-05-22T18:57:52;101491.9;;;25.88;42.46094
59987;BME280;46181;51.498;5.392;2023-05-22T19:02:22;101498.4;;;25.74;42.63574
59987;BME280;46181;51.498;5.392;2023-05-22T19:06:52;101502.3;;;25.59;42.83105
59987;BME280;46181;51.498;5.392;2023-05-22T19:11:22;101507.4;;;25.49;43.16016
59987;BME280;46181;51.498;5.392;2023-05-22T19:15:52;101515;;;25.38;43.36133
59987;BME280;46181;51.498;5.392;2023-05-22T19:20:22;101523.4;;;25.3;43.62207
59987;BME280;46181;51.498;5.392;2023-05-22T19:24:52;101528.6;;;25.21;43.80078
59987;BME280;46181;51.498;5.392;2023-05-22T19:29:22;101533.3;;;25.13;43.94434
59987;BME280;46181;51.498;5.392;2023-05-22T19:33:52;101542.4;;;25;44.12988
59987;BME280;46181;51.498;5.392;2023-05-22T19:38:22;101546;;;24.88;44.55078
59987;BME280;46181;51.498;5.392;2023-05-22T19:42:52;101552;;;24.76;44.99414
59987;BME280;46181;51.498;5.392;2023-05-22T19:47:22;101555;;;24.65;45.46191
59987;BME280;46181;51.498;5.392;2023-05-22T19:51:52;101560.4;;;24.52;46.08887
59987;BME280;46181;51.498;5.392;2023-05-22T19:56:22;101558;;;24.36;46.44629
59987;BME280;46181;51.498;5.392;2023-05-22T20:00:52;101571.2;;;24.3;46.73047
59987;BME280;46181;51.498;5.392;2023-05-22T20:05:22;101577.7;;;24.2;47.04688
59987;BME280;46181;51.498;5.392;2023-05-22T20:09:52;101582.8;;;24.05;47.32227
59987;BME280;46181;51.498;5.392;2023-05-22T20:14:23;101582.6;;;23.95;47.66113
59987;BME280;46181;51.498;5.392;2023-05-22T20:18:53;101589.4;;;23.85;47.86035
59987;BME280;46181;51.498;5.392;2023-05-22T20:23:22;101602.1;;;23.77;48.02539
59987;BME280;46181;51.498;5.392;2023-05-22T20:27:52;101611.3;;;23.64;48.13965
59987;BME280;46181;51.498;5.392;2023-05-22T20:32:22;101623.1;;;23.54;48.35059
59987;BME280;46181;51.498;5.392;2023-05-22T20:36:52;101625.3;;;23.42;48.62695
59987;BME280;46181;51.498;5.392;2023-05-22T20:41:22;101635.2;;;23.32;48.84961
59987;BME280;46181;51.498;5.392;2023-05-22T20:45:52;101639.2;;;23.2;49.18457
59987;BME280;46181;51.498;5.392;2023-05-22T20:50:22;101644.9;;;23.05;49.55176
59987;BME280;46181;51.498;5.392;2023-05-22T20:54:52;101656.5;;;22.97;49.79883
59987;BME280;46181;51.498;5.392;2023-05-22T20:59:22;101666.7;;;22.91;50.09277
59987;BME280;46181;51.498;5.392;2023-05-22T21:03:52;101673.6;;;22.77;50.41406
59987;BME280;46181;51.498;5.392;2023-05-22T21:08:23;101678.2;;;22.63;50.74609
59987;BME280;46181;51.498;5.392;2023-05-22T21:12:52;101679;;;22.48;50.98535
59987;BME280;46181;51.498;5.392;2023-05-22T21:17:22;101682.1;;;22.29;51.43848
59987;BME280;46181;51.498;5.392;2023-05-22T21:21:52;101679.8;;;22.11;51.81055
59987;BME280;46181;51.498;5.392;2023-05-22T21:26:22;101680.8;;;21.98;52.12012
59987;BME280;46181;51.498;5.392;2023-05-22T21:30:52;101679;;;21.88;52.33887
59987;BME280;46181;51.498;5.392;2023-05-22T21:35:22;101678.6;;;21.82;52.51758
59987;BME280;46181;51.498;5.392;2023-05-22T21:39:52;101677.9;;;21.68;52.74316
59987;BME280;46181;51.498;5.392;2023-05-22T21:44:22;101687.8;;;21.58;52.90625
59987;BME280;46181;51.498;5.392;2023-05-22T21:48:52;101701.1;;;21.47;53.25098
59987;BME280;46181;51.498;5.392;2023-05-22T21:53:22;101717.2;;;21.33;53.42969
59987;BME280;46181;51.498;5.392;2023-05-22T21:57:53;101723.1;;;21.24;53.80078
59987;BME280;46181;51.498;5.392;2023-05-22T22:02:22;101726.5;;;21.24;53.75391
59987;BME280;46181;51.498;5.392;2023-05-22T22:06:52;101733.9;;;21.12;54.02832
59987;BME280;46181;51.498;5.392;2023-05-22T22:11:22;101742.6;;;21.12;54.20215
59987;BME280;46181;51.498;5.392;2023-05-22T22:15:52;101750.5;;;21.1;54.28027
59987;BME280;46181;51.498;5.392;2023-05-22T22:20:22;101750.6;;;21.1;54.38477
59987;BME280;46181;51.498;5.392;2023-05-22T22:24:52;101756.6;;;21.08;54.4502
59987;BME280;46181;51.498;5.392;2023-05-22T22:29:22;101751.1;;;21.05;54.43555
59987;BME280;46181;51.498;5.392;2023-05-22T22:33:52;101744.4;;;20.95;54.51563
59987;BME280;46181;51.498;5.392;2023-05-22T22:38:22;101747.7;;;20.82;54.72949
59987;BME280;46181;51.498;5.392;2023-05-22T22:42:52;101740.1;;;20.68;54.9668
59987;BME280;46181;51.498;5.392;2023-05-22T22:47:22;101753.1;;;20.58;55.17383
59987;BME280;46181;51.498;5.392;2023-05-22T22:51:52;101759.7;;;20.49;55.32422
59987;BME280;46181;51.498;5.392;2023-05-22T22:56:22;101758.2;;;20.36;55.6543
59987;BME280;46181;51.498;5.392;2023-05-22T23:00:52;101756.2;;;20.3;55.72656
59987;BME280;46181;51.498;5.392;2023-05-22T23:05:22;101757.9;;;20.23;55.69531
59987;BME280;46181;51.498;5.392;2023-05-22T23:09:52;101759.9;;;20.16;55.89453